createdAt,value
2019-03-30T00:01:51.665Z,43.43
2019-03-30T00:04:21.657Z,42.87
2019-03-30T00:06:51.753Z,42.37
2019-03-30T00:09:21.693Z,43.60
2019-03-30T00:11:51.977Z,42.53
2019-03-30T00:14:21.886Z,43.73
2019-03-30T00:16:51.923Z,43.00
2019-03-30T00:19:34.451Z,43.47
2019-03-30T00:21:53.453Z,44.20
2019-03-30T00:24:23.421Z,45.07
2019-03-30T00:26:53.816Z,45.73
2019-03-30T00:29:23.764Z,45.13
2019-03-30T00:31:53.725Z,45.40
2019-03-30T00:34:23.677Z,45.70
2019-03-30T00:36:53.666Z,47.83
2019-03-30T00:39:23.663Z,47.03
2019-03-30T00:41:53.560Z,48.80
2019-03-30T00:44:23.920Z,46.70
2019-03-30T00:46:53.858Z,45.47
2019-03-30T00:49:23.822Z,47.27
2019-03-30T00:51:53.732Z,47.17
2019-03-30T00:54:23.728Z,45.63
2019-03-30T00:56:53.724Z,45.33
2019-03-30T00:59:23.665Z,43.27
2019-03-30T01:01:53.591Z,44.10
2019-03-30T01:04:23.523Z,47.37
2019-03-30T01:06:53.467Z,46.13
2019-03-30T01:09:23.393Z,46.67
2019-03-30T01:11:53.419Z,46.43
2019-03-30T01:14:23.429Z,46.90
2019-03-30T01:16:53.740Z,44.50
2019-03-30T01:19:23.731Z,46.03
2019-03-30T01:21:56.088Z,43.50
2019-03-30T01:24:25.305Z,42.90
2019-03-30T01:26:58.013Z,43.57
2019-03-30T01:29:28.314Z,41.83
2019-03-30T01:31:58.255Z,42.50
2019-03-30T01:34:28.224Z,42.73
2019-03-30T01:36:58.118Z,40.27
2019-03-30T01:39:28.458Z,43.50
2019-03-30T01:41:58.307Z,43.63
2019-03-30T01:44:28.271Z,44.53
2019-03-30T01:46:58.226Z,44.37
2019-03-30T01:49:28.159Z,44.53
2019-03-30T01:51:58.451Z,42.77
2019-03-30T01:54:28.413Z,45.60
2019-03-30T01:56:59.187Z,45.20
2019-03-30T01:59:29.111Z,45.70
2019-03-30T02:01:59.054Z,43.93
2019-03-30T02:04:29.087Z,46.33
2019-03-30T02:06:59.060Z,45.00
2019-03-30T02:09:28.917Z,44.83
2019-03-30T02:11:58.839Z,43.37
2019-03-30T02:14:28.835Z,44.33
2019-03-30T02:16:58.883Z,43.80
2019-03-30T02:19:29.151Z,46.20
2019-03-30T02:21:59.013Z,44.53
2019-03-30T02:24:28.916Z,44.80
2019-03-30T02:26:58.834Z,42.27
2019-03-30T02:29:28.721Z,43.93
2019-03-30T02:31:58.582Z,42.47
2019-03-30T02:34:28.950Z,42.33
2019-03-30T02:36:58.920Z,44.50
2019-03-30T02:39:28.845Z,40.87
2019-03-30T02:41:58.815Z,43.03
2019-03-30T02:44:28.793Z,40.70
2019-03-30T02:46:58.805Z,39.87
2019-03-30T02:49:28.720Z,40.10
2019-03-30T02:51:58.981Z,38.77
2019-03-30T02:54:29.359Z,39.60
2019-03-30T02:56:59.323Z,39.17
2019-03-30T02:59:29.252Z,39.70
2019-03-30T03:01:59.240Z,38.93
2019-03-30T03:04:29.194Z,40.13
2019-03-30T03:06:59.216Z,38.83
2019-03-30T03:09:29.220Z,39.90
2019-03-30T03:11:59.198Z,39.33
2019-03-30T03:14:29.094Z,38.87
2019-03-30T03:16:59.082Z,40.40
2019-03-30T03:19:29.053Z,37.23
2019-03-30T03:21:58.968Z,39.43
2019-03-30T03:24:28.944Z,39.63
2019-03-30T03:26:58.892Z,41.17
2019-03-30T03:29:28.865Z,40.37
2019-03-30T03:31:59.467Z,41.53
2019-03-30T03:34:29.414Z,42.97
2019-03-30T03:36:59.647Z,43.63
2019-03-30T03:39:29.531Z,44.27
2019-03-30T03:41:59.459Z,41.73
2019-03-30T03:44:29.460Z,40.50
2019-03-30T03:46:59.434Z,39.47
2019-03-30T03:49:29.730Z,40.23
2019-03-30T03:52:00.109Z,39.27
2019-03-30T03:54:31.229Z,37.53
2019-03-30T03:57:02.656Z,39.87
2019-03-30T03:59:35.393Z,38.63
2019-03-30T04:02:05.737Z,37.40
2019-03-30T04:04:38.591Z,38.73
2019-03-30T04:07:09.872Z,38.67
2019-03-30T04:09:41.391Z,36.40
2019-03-30T04:12:13.394Z,38.03
2019-03-30T04:14:47.230Z,37.70
2019-03-30T04:17:17.626Z,36.37
2019-03-30T04:19:47.536Z,35.67
2019-03-30T04:22:17.463Z,37.13
2019-03-30T04:24:47.465Z,35.80
2019-03-30T04:27:17.398Z,36.83
2019-03-30T04:29:47.354Z,35.77
2019-03-30T04:32:17.241Z,34.47
2019-03-30T04:34:47.352Z,34.87
2019-03-30T04:37:17.652Z,36.07
2019-03-30T04:39:47.531Z,35.80
2019-03-30T04:42:17.493Z,34.83
2019-03-30T04:44:47.891Z,34.40
2019-03-30T04:47:17.859Z,33.73
2019-03-30T04:49:47.715Z,34.47
2019-03-30T04:52:18.245Z,36.10
2019-03-30T04:54:48.104Z,35.53
2019-03-30T04:57:18.079Z,36.50
2019-03-30T04:59:48.042Z,35.30
2019-03-30T05:02:18.023Z,35.30
2019-03-30T05:04:47.983Z,35.90
2019-03-30T05:07:17.987Z,36.10
2019-03-30T05:09:47.920Z,34.80
2019-03-30T05:12:17.855Z,34.30
2019-03-30T05:14:48.880Z,33.77
2019-03-30T05:17:18.752Z,35.50
2019-03-30T05:19:48.675Z,33.27
2019-03-30T05:22:18.672Z,34.00
2019-03-30T05:24:48.619Z,33.67
2019-03-30T05:27:18.475Z,34.23
2019-03-30T05:29:49.044Z,34.47
2019-03-30T05:32:18.999Z,32.93
2019-03-30T05:34:48.866Z,34.20
2019-03-30T05:37:18.709Z,31.77
2019-03-30T05:39:48.673Z,32.27
2019-03-30T05:42:18.555Z,32.57
2019-03-30T05:44:49.243Z,31.87
2019-03-30T05:47:19.318Z,32.27
2019-03-30T05:49:49.250Z,33.00
2019-03-30T05:52:26.279Z,33.83
2019-03-30T05:54:50.877Z,32.87
2019-03-30T05:57:20.754Z,31.63
2019-03-30T05:59:50.636Z,32.23
2019-03-30T06:02:20.544Z,31.97
2019-03-30T06:04:50.542Z,33.27
2019-03-30T06:07:20.524Z,32.23
2019-03-30T06:09:50.657Z,33.40
2019-03-30T06:12:20.819Z,33.90
2019-03-30T06:14:50.756Z,34.03
2019-03-30T06:17:20.778Z,33.33
2019-03-30T06:19:50.656Z,34.97
2019-03-30T06:22:20.620Z,35.40
2019-03-30T06:24:50.527Z,35.30
2019-03-30T06:27:20.398Z,35.43
2019-03-30T06:30:27.844Z,35.60
2019-03-30T06:32:57.746Z,32.87
2019-03-30T06:35:28.073Z,33.50
2019-03-30T06:37:58.010Z,33.93
2019-03-30T06:40:28.010Z,34.37
2019-03-30T06:42:58.281Z,33.53
2019-03-30T06:45:28.261Z,32.33
2019-03-30T06:47:58.303Z,32.53
2019-03-30T06:50:28.272Z,32.63
2019-03-30T06:52:58.892Z,31.27
2019-03-30T06:55:29.080Z,31.57
2019-03-30T06:57:59.145Z,32.20
2019-03-30T07:00:36.891Z,32.13
2019-03-30T07:03:08.310Z,30.33
2019-03-30T07:05:42.517Z,29.90
2019-03-30T07:08:16.416Z,30.43
2019-03-30T07:10:47.082Z,29.60
2019-03-30T07:13:17.455Z,31.10
2019-03-30T07:15:48.566Z,30.57
2019-03-30T07:18:19.525Z,30.50
2019-03-30T07:20:49.546Z,30.50
2019-03-30T07:23:19.522Z,30.07
2019-03-30T07:25:49.460Z,30.17
2019-03-30T07:28:19.366Z,30.43
2019-03-30T07:30:49.664Z,29.80
2019-03-30T07:33:19.598Z,30.97
2019-03-30T07:36:08.320Z,30.50
2019-03-30T07:38:38.382Z,28.50
2019-03-30T07:41:08.361Z,29.43
2019-03-30T07:43:38.611Z,29.50
2019-03-30T07:46:08.641Z,28.80
2019-03-30T07:48:38.597Z,27.50
2019-03-30T07:51:08.528Z,27.77
2019-03-30T07:53:44.652Z,26.20
2019-03-30T07:56:11.572Z,27.10
2019-03-30T07:58:41.530Z,26.37
2019-03-30T08:01:11.513Z,25.73
2019-03-30T08:03:41.535Z,25.70
2019-03-30T08:06:12.735Z,25.73
2019-03-30T08:08:42.675Z,25.83
2019-03-30T08:11:14.373Z,26.17
2019-03-30T08:13:44.711Z,25.23
2019-03-30T08:16:33.494Z,23.90
2019-03-30T08:19:03.508Z,25.93
2019-03-30T08:21:33.463Z,24.37
2019-03-30T08:24:04.058Z,22.73
2019-03-30T08:26:35.592Z,24.00
2019-03-30T08:29:06.140Z,23.97
2019-03-30T08:31:36.114Z,23.27
2019-03-30T08:34:06.112Z,21.63
2019-03-30T08:36:36.058Z,21.77
2019-03-30T08:39:07.997Z,22.03
2019-03-30T08:41:37.928Z,21.00
2019-03-30T08:44:07.938Z,20.53
2019-03-30T08:46:37.814Z,19.37
2019-03-30T08:49:07.691Z,18.87
2019-03-30T08:51:38.048Z,18.53
2019-03-30T08:54:08.042Z,18.17
2019-03-30T08:56:37.990Z,17.83
2019-03-30T08:59:08.089Z,17.80
2019-03-30T09:01:38.520Z,15.87
2019-03-30T09:04:08.473Z,14.73
2019-03-30T09:06:38.518Z,15.03
2019-03-30T09:09:09.412Z,15.53
2019-03-30T09:11:39.421Z,15.63
2019-03-30T09:14:09.878Z,15.77
2019-03-30T09:16:39.946Z,14.20
2019-03-30T09:19:09.892Z,14.23
2019-03-30T09:21:39.936Z,13.77
2019-03-30T09:24:10.457Z,13.37
2019-03-30T09:26:40.778Z,13.67
2019-03-30T09:29:10.826Z,14.03
2019-03-30T09:31:40.882Z,13.83
2019-03-30T09:34:10.854Z,14.20
2019-03-30T09:36:40.852Z,13.53
2019-03-30T09:39:11.382Z,13.77
2019-03-30T09:41:41.338Z,14.60
2019-03-30T09:44:11.393Z,14.20
2019-03-30T09:46:41.456Z,14.70
2019-03-30T09:49:11.350Z,15.20
2019-03-30T09:51:41.223Z,13.63
2019-03-30T09:54:23.115Z,13.70
2019-03-30T09:56:43.185Z,13.43
2019-03-30T09:59:13.154Z,12.83
2019-03-30T10:01:43.148Z,13.77
2019-03-30T10:04:13.583Z,11.60
2019-03-30T10:06:43.568Z,12.40
2019-03-30T10:09:13.467Z,12.57
2019-03-30T10:11:43.577Z,12.37
2019-03-30T10:14:34.411Z,12.73
2019-03-30T10:17:04.399Z,11.83
2019-03-30T10:19:34.748Z,12.03
2019-03-30T10:22:04.834Z,10.60
2019-03-30T10:24:38.325Z,10.93
2019-03-30T10:27:06.630Z,10.33
2019-03-30T10:29:36.754Z,10.13
2019-03-30T10:32:06.812Z,9.80
2019-03-30T10:34:39.391Z,10.33
2019-03-30T10:37:08.440Z,10.57
2019-03-30T10:39:38.463Z,9.07
2019-03-30T10:42:08.466Z,9.63
2019-03-30T10:44:38.479Z,9.00
2019-03-30T10:47:08.374Z,8.60
2019-03-30T10:49:38.345Z,8.70
2019-03-30T10:52:08.648Z,8.43
2019-03-30T10:54:51.653Z,8.50
2019-03-30T10:57:10.220Z,7.83
2019-03-30T10:59:40.279Z,8.40
2019-03-30T11:02:10.243Z,8.47
2019-03-30T11:04:40.332Z,8.10
2019-03-30T11:07:10.365Z,6.23
2019-03-30T11:09:40.395Z,6.43
2019-03-30T11:12:10.473Z,7.50
2019-03-30T11:14:40.435Z,7.87
2019-03-30T11:17:10.378Z,7.50
2019-03-30T11:19:40.523Z,8.37
2019-03-30T11:22:10.476Z,9.37
2019-03-30T11:24:40.479Z,9.50
2019-03-30T11:27:10.419Z,9.03
2019-03-30T11:29:40.837Z,8.30
2019-03-30T11:32:10.813Z,8.33
2019-03-30T11:34:41.091Z,9.03
2019-03-30T11:37:11.123Z,8.80
2019-03-30T11:39:41.143Z,6.93
2019-03-30T11:42:11.233Z,8.40
2019-03-30T11:44:41.623Z,8.33
2019-03-30T11:47:12.521Z,8.30
2019-03-30T11:49:42.579Z,8.87
2019-03-30T11:52:12.555Z,8.93
2019-03-30T11:54:42.469Z,9.20
2019-03-30T11:57:12.469Z,9.23
2019-03-30T11:59:42.445Z,9.90
2019-03-30T12:02:21.732Z,8.67
2019-03-30T12:04:44.347Z,9.30
2019-03-30T12:07:14.335Z,9.03
2019-03-30T12:09:44.361Z,8.60
2019-03-30T12:12:14.305Z,8.80
2019-03-30T12:14:44.345Z,9.80
2019-03-30T12:17:14.741Z,9.23
2019-03-30T12:19:44.740Z,10.00
2019-03-30T12:22:15.541Z,10.13
2019-03-30T12:24:45.517Z,9.53
2019-03-30T12:27:15.423Z,9.20
2019-03-30T12:29:45.319Z,9.83
2019-03-30T12:32:15.297Z,9.33
2019-03-30T12:34:45.318Z,8.10
2019-03-30T12:37:15.557Z,8.33
2019-03-30T12:39:45.540Z,8.47
2019-03-30T12:42:15.583Z,8.90
2019-03-30T12:44:45.935Z,8.80
2019-03-30T12:47:15.797Z,9.40
2019-03-30T12:49:46.090Z,8.97
2019-03-30T12:52:16.212Z,8.90
2019-03-30T12:54:46.197Z,8.50
2019-03-30T12:57:17.060Z,7.93
2019-03-30T12:59:47.080Z,8.17
2019-03-30T13:02:17.146Z,7.67
2019-03-30T13:04:47.111Z,8.60
2019-03-30T13:07:17.040Z,8.57
2019-03-30T13:09:47.044Z,8.13
2019-03-30T13:12:17.003Z,7.80
2019-03-30T13:14:47.139Z,8.27
2019-03-30T13:17:17.191Z,8.57
2019-03-30T13:19:47.147Z,7.17
2019-03-30T13:22:17.530Z,7.67
2019-03-30T13:24:47.514Z,8.17
2019-03-30T13:27:17.856Z,7.13
2019-03-30T13:29:47.746Z,7.87
2019-03-30T13:32:17.604Z,7.53
2019-03-30T13:34:47.565Z,8.10
2019-03-30T13:37:18.407Z,8.97
2019-03-30T13:39:48.795Z,7.70
2019-03-30T13:42:18.919Z,8.13
2019-03-30T13:44:48.860Z,7.70
2019-03-30T13:47:18.717Z,7.97
2019-03-30T13:49:48.663Z,8.10
2019-03-30T13:52:19.371Z,7.40
2019-03-30T13:54:49.329Z,7.03
2019-03-30T13:57:19.279Z,9.37
2019-03-30T13:59:49.303Z,7.50
2019-03-30T14:02:19.235Z,8.00
2019-03-30T14:04:52.184Z,7.70
2019-03-30T14:07:20.747Z,11.00
2019-03-30T14:09:52.041Z,7.20
2019-03-30T14:12:21.972Z,8.10
2019-03-30T14:14:51.967Z,7.30
2019-03-30T14:17:22.265Z,6.70
2019-03-30T14:19:52.989Z,7.53
2019-03-30T14:22:22.952Z,7.23
2019-03-30T14:24:52.853Z,7.03
2019-03-30T14:27:23.077Z,6.40
2019-03-30T14:29:54.410Z,7.10
2019-03-30T14:32:24.679Z,8.00
2019-03-30T14:34:54.663Z,7.43
2019-03-30T14:37:24.583Z,7.27
2019-03-30T14:39:54.549Z,7.53
2019-03-30T14:42:24.870Z,7.03
2019-03-30T14:44:54.791Z,7.70
2019-03-30T14:47:25.067Z,7.20
2019-03-30T14:49:55.113Z,7.70
2019-03-30T14:52:25.074Z,7.43
2019-03-30T14:54:57.091Z,8.27
2019-03-30T14:57:29.217Z,156.37
2019-03-30T14:59:59.030Z,326.50
2019-03-30T15:02:29.050Z,9.73
2019-03-30T15:05:00.974Z,8.40
2019-03-30T15:07:30.815Z,7.80
2019-03-30T15:10:01.332Z,8.57
2019-03-30T15:12:31.387Z,10.80
2019-03-30T15:15:01.401Z,8.00
2019-03-30T15:17:31.604Z,7.97
2019-03-30T15:20:01.854Z,8.50
2019-03-30T15:22:31.971Z,8.77
2019-03-30T15:25:02.074Z,9.07
2019-03-30T15:27:33.801Z,7.53
2019-03-30T15:30:04.461Z,7.57
2019-03-30T15:32:34.718Z,7.00
2019-03-30T15:35:05.313Z,7.33
2019-03-30T15:37:35.291Z,7.40
2019-03-30T15:40:06.107Z,8.10
2019-03-30T15:42:39.925Z,6.83
2019-03-30T15:45:08.589Z,6.40
2019-03-30T15:47:38.521Z,7.00
2019-03-30T15:50:09.706Z,5.87
2019-03-30T15:52:39.665Z,6.50
2019-03-30T15:55:09.876Z,5.53
2019-03-30T15:57:40.069Z,5.87
2019-03-30T16:00:12.201Z,5.70
2019-03-30T16:02:42.209Z,5.63
2019-03-30T16:05:15.683Z,15.60
2019-03-30T16:07:46.472Z,28.03
2019-03-30T16:10:16.596Z,35.23
2019-03-30T16:12:46.965Z,36.90
2019-03-30T16:15:16.913Z,36.57
2019-03-30T16:17:46.900Z,40.33
2019-03-30T16:20:17.323Z,40.27
2019-03-30T16:22:47.767Z,40.93
2019-03-30T16:25:17.804Z,39.70
2019-03-30T16:27:47.783Z,40.67
2019-03-30T16:30:18.008Z,33.27
2019-03-30T16:32:47.982Z,34.90
2019-03-30T16:35:17.990Z,37.93
2019-03-30T16:37:48.263Z,38.60
2019-03-30T16:40:18.283Z,38.00
2019-03-30T16:42:48.337Z,38.43
2019-03-30T16:45:18.319Z,38.40
2019-03-30T16:47:48.673Z,38.20
2019-03-30T16:50:19.087Z,39.10
2019-03-30T16:52:49.420Z,39.23
2019-03-30T16:55:19.391Z,40.40
2019-03-30T16:57:49.732Z,42.83
2019-03-30T17:00:20.766Z,41.23
2019-03-30T17:02:52.245Z,43.10
2019-03-30T17:05:22.227Z,43.10
2019-03-30T17:07:52.188Z,43.73
2019-03-30T17:10:22.153Z,45.17
2019-03-30T17:12:52.247Z,43.90
2019-03-30T17:15:22.184Z,45.77
2019-03-30T17:17:57.144Z,44.30
2019-03-30T17:20:27.159Z,46.67
2019-03-30T17:22:58.780Z,47.63
2019-03-30T17:25:28.823Z,48.97
2019-03-30T17:27:59.600Z,46.27
2019-03-30T17:30:29.938Z,45.53
2019-03-30T17:32:59.906Z,45.07
2019-03-30T17:35:30.027Z,44.20
2019-03-30T17:38:00.011Z,42.53
2019-03-30T17:40:31.825Z,43.63
2019-03-30T17:43:01.967Z,39.77
2019-03-30T17:45:31.884Z,41.50
2019-03-30T17:48:01.878Z,39.50
2019-03-30T17:50:31.867Z,37.40
2019-03-30T17:53:01.846Z,35.10
2019-03-30T17:55:34.042Z,33.10
2019-03-30T17:58:12.797Z,31.43
2019-03-30T18:00:35.382Z,29.70
2019-03-30T18:03:05.419Z,29.70
2019-03-30T18:05:35.411Z,29.73
2019-03-30T18:08:07.194Z,28.30
2019-03-30T18:10:37.202Z,27.93
2019-03-30T18:13:07.429Z,27.50
2019-03-30T18:15:37.766Z,27.07
2019-03-30T18:18:07.722Z,29.17
2019-03-30T18:20:38.144Z,28.63
2019-03-30T18:23:08.072Z,29.27
2019-03-30T18:25:37.971Z,31.17
2019-03-30T18:28:08.195Z,30.93
2019-03-30T18:30:40.766Z,31.70
2019-03-30T18:33:10.852Z,31.90
2019-03-30T18:35:41.621Z,33.37
2019-03-30T18:38:13.061Z,33.23
2019-03-30T18:40:43.504Z,35.03
2019-03-30T18:43:13.480Z,35.03
2019-03-30T18:45:43.459Z,35.10
2019-03-30T18:48:17.644Z,35.73
2019-03-30T18:50:47.940Z,36.17
2019-03-30T18:53:18.806Z,36.13
2019-03-30T18:55:49.017Z,37.13
2019-03-30T18:58:19.488Z,36.93
2019-03-30T19:00:49.665Z,34.93
2019-03-30T19:03:20.464Z,36.33
2019-03-30T19:05:50.573Z,34.23
2019-03-30T19:08:20.908Z,44.70
2019-03-30T19:10:51.036Z,43.90
2019-03-30T19:13:21.521Z,41.53
2019-03-30T19:15:51.521Z,37.80
2019-03-30T19:18:21.455Z,37.63
2019-03-30T19:20:53.595Z,39.47
2019-03-30T19:23:23.613Z,39.70
2019-03-30T19:25:54.012Z,41.27
2019-03-30T19:28:24.129Z,41.23
2019-03-30T19:30:54.147Z,43.97
2019-03-30T19:33:24.279Z,45.43
2019-03-30T19:35:57.306Z,46.73
2019-03-30T19:38:27.283Z,45.97
2019-03-30T19:40:57.372Z,43.27
2019-03-30T19:43:27.785Z,45.53
2019-03-30T19:45:58.144Z,46.93
2019-03-30T19:48:28.130Z,49.90
2019-03-30T19:50:58.690Z,47.73
2019-03-30T19:53:28.988Z,42.83
2019-03-30T19:55:59.101Z,42.30
2019-03-30T19:58:28.984Z,43.73
2019-03-30T20:00:59.060Z,44.63
2019-03-30T20:03:29.102Z,42.07
2019-03-30T20:05:59.459Z,42.33
2019-03-30T20:08:29.433Z,41.13
2019-03-30T20:10:59.413Z,42.67
2019-03-30T20:13:29.433Z,41.50
2019-03-30T20:15:59.429Z,39.47
2019-03-30T20:18:29.648Z,41.00
2019-03-30T20:20:59.774Z,43.50
2019-03-30T20:23:29.692Z,42.03
2019-03-30T20:25:59.732Z,39.90
2019-03-30T20:28:29.789Z,42.27
2019-03-30T20:30:59.695Z,40.70
2019-03-30T20:33:29.870Z,39.83
2019-03-30T20:36:02.913Z,40.00
2019-03-30T20:38:32.896Z,37.13
2019-03-30T20:41:02.949Z,37.83
2019-03-30T20:43:32.916Z,37.93
2019-03-30T20:46:02.908Z,37.77
2019-03-30T20:48:32.819Z,36.10
2019-03-30T20:51:02.832Z,37.37
2019-03-30T20:53:32.784Z,36.20
2019-03-30T20:56:02.776Z,36.30
2019-03-30T20:58:32.941Z,36.03
2019-03-30T21:01:02.958Z,37.97
2019-03-30T21:03:32.864Z,37.83
2019-03-30T21:06:02.778Z,37.23
2019-03-30T21:08:32.794Z,36.40
2019-03-30T21:11:03.846Z,36.50
2019-03-30T21:13:33.800Z,34.03
2019-03-30T21:16:03.684Z,32.90
2019-03-30T21:18:33.971Z,31.40
2019-03-30T21:21:03.951Z,29.47
2019-03-30T21:23:33.970Z,28.20
2019-03-30T21:26:04.194Z,27.70
2019-03-30T21:28:34.189Z,27.80
2019-03-30T21:31:04.116Z,28.20
2019-03-30T21:33:34.349Z,28.33
2019-03-30T21:36:04.272Z,27.63
2019-03-30T21:38:34.292Z,28.63
2019-03-30T21:41:04.672Z,29.47
2019-03-30T21:43:34.642Z,28.53
2019-03-30T21:46:05.050Z,30.23
2019-03-30T21:48:35.001Z,30.63
2019-03-30T21:51:04.978Z,29.83
2019-03-30T21:53:34.884Z,30.40
2019-03-30T21:56:04.816Z,29.17
2019-03-30T21:58:34.800Z,31.80
2019-03-30T22:01:04.831Z,31.17
2019-03-30T22:03:34.892Z,31.57
2019-03-30T22:06:04.966Z,30.67
2019-03-30T22:08:35.718Z,30.63
2019-03-30T22:11:06.178Z,31.73
2019-03-30T22:13:36.119Z,30.20
2019-03-30T22:16:06.168Z,31.77
2019-03-30T22:18:36.106Z,33.17
2019-03-30T22:21:06.142Z,33.70
2019-03-30T22:23:37.035Z,31.17
2019-03-30T22:26:07.054Z,29.57
2019-03-30T22:28:37.367Z,30.67
2019-03-30T22:31:07.396Z,31.90
2019-03-30T22:33:37.342Z,33.30
2019-03-30T22:36:07.308Z,29.50
2019-03-30T22:38:37.209Z,30.13
2019-03-30T22:41:07.206Z,30.90
2019-03-30T22:43:37.149Z,33.97
2019-03-30T22:46:07.840Z,31.27
2019-03-30T22:48:38.225Z,31.70
2019-03-30T22:51:08.316Z,32.20
2019-03-30T22:53:38.286Z,33.30
2019-03-30T22:56:08.249Z,33.43
2019-03-30T22:58:38.141Z,33.17
2019-03-30T23:01:19.334Z,36.27
2019-03-30T23:03:49.277Z,33.17
2019-03-30T23:06:19.618Z,31.87
2019-03-30T23:08:49.596Z,33.17
2019-03-30T23:11:19.586Z,34.80
2019-03-30T23:13:49.561Z,34.27
2019-03-30T23:16:19.496Z,33.53
2019-03-30T23:18:49.415Z,34.53
2019-03-30T23:21:19.396Z,34.23
2019-03-30T23:23:49.367Z,35.53
2019-03-30T23:26:20.048Z,38.03
2019-03-30T23:28:49.998Z,40.47
2019-03-30T23:31:19.970Z,36.97
2019-03-30T23:33:49.921Z,36.97
2019-03-30T23:36:19.807Z,36.40
2019-03-30T23:38:49.819Z,36.53
2019-03-30T23:41:19.820Z,35.90
2019-03-30T23:43:49.762Z,34.10
2019-03-30T23:46:20.091Z,36.90
2019-03-30T23:48:50.052Z,35.50
2019-03-30T23:51:20.011Z,33.90
2019-03-30T23:53:50.024Z,34.07
2019-03-30T23:56:24.820Z,33.83
2019-03-30T23:58:54.805Z,36.00
